sensor_id;sensor_type;location;lat;lon;timestamp;P1;durP1;ratioP1;P2;durP2;ratioP2
36671;SDS011;22663;47.412;9.742;2022-12-11T00:01:58;31.87;;;18.53;;
36671;SDS011;22663;47.412;9.742;2022-12-11T00:04:24;33.08;;;17.65;;
36671;SDS011;22663;47.412;9.742;2022-12-11T00:06:51;36.50;;;18.43;;
36671;SDS011;22663;47.412;9.742;2022-12-11T00:09:18;31.63;;;18.73;;
36671;SDS011;22663;47.412;9.742;2022-12-11T00:11:44;34.33;;;18.75;;
36671;SDS011;22663;47.412;9.742;2022-12-11T00:14:10;29.75;;;17.55;;
36671;SDS011;22663;47.412;9.742;2022-12-11T00:16:36;32.97;;;18.60;;
36671;SDS011;22663;47.412;9.742;2022-12-11T00:19:02;31.85;;;18.85;;
36671;SDS011;22663;47.412;9.742;2022-12-11T00:21:28;30.27;;;17.30;;
36671;SDS011;22663;47.412;9.742;2022-12-11T00:23:54;34.33;;;17.42;;
36671;SDS011;22663;47.412;9.742;2022-12-11T00:26:21;33.37;;;19.50;;
36671;SDS011;22663;47.412;9.742;2022-12-11T00:28:47;33.15;;;19.20;;
36671;SDS011;22663;47.412;9.742;2022-12-11T00:31:14;29.98;;;17.55;;
36671;SDS011;22663;47.412;9.742;2022-12-11T00:33:41;30.00;;;17.63;;
36671;SDS011;22663;47.412;9.742;2022-12-11T00:36:13;34.75;;;18.35;;
36671;SDS011;22663;47.412;9.742;2022-12-11T00:38:39;31.63;;;17.50;;
36671;SDS011;22663;47.412;9.742;2022-12-11T00:41:05;30.80;;;16.90;;
36671;SDS011;22663;47.412;9.742;2022-12-11T00:43:31;33.23;;;18.47;;
36671;SDS011;22663;47.412;9.742;2022-12-11T00:45:57;32.35;;;17.08;;
36671;SDS011;22663;47.412;9.742;2022-12-11T00:48:23;32.28;;;18.48;;
36671;SDS011;22663;47.412;9.742;2022-12-11T00:50:49;31.02;;;17.00;;
36671;SDS011;22663;47.412;9.742;2022-12-11T00:53:15;34.83;;;18.20;;
36671;SDS011;22663;47.412;9.742;2022-12-11T00:55:41;28.38;;;16.98;;
36671;SDS011;22663;47.412;9.742;2022-12-11T00:58:08;29.73;;;17.30;;
36671;SDS011;22663;47.412;9.742;2022-12-11T01:00:34;28.77;;;17.05;;
36671;SDS011;22663;47.412;9.742;2022-12-11T01:03:01;28.38;;;16.98;;
36671;SDS011;22663;47.412;9.742;2022-12-11T01:05:27;33.22;;;18.33;;
36671;SDS011;22663;47.412;9.742;2022-12-11T01:07:53;29.13;;;17.52;;
36671;SDS011;22663;47.412;9.742;2022-12-11T01:10:19;34.53;;;17.25;;
36671;SDS011;22663;47.412;9.742;2022-12-11T01:13:01;30.60;;;17.58;;
36671;SDS011;22663;47.412;9.742;2022-12-11T01:15:29;26.90;;;15.90;;
36671;SDS011;22663;47.412;9.742;2022-12-11T01:17:56;32.05;;;17.13;;
36671;SDS011;22663;47.412;9.742;2022-12-11T01:20:22;30.95;;;18.40;;
36671;SDS011;22663;47.412;9.742;2022-12-11T01:22:53;31.63;;;17.90;;
36671;SDS011;22663;47.412;9.742;2022-12-11T01:25:20;30.52;;;17.42;;
36671;SDS011;22663;47.412;9.742;2022-12-11T01:27:46;31.95;;;17.25;;
36671;SDS011;22663;47.412;9.742;2022-12-11T01:30:14;31.83;;;17.50;;
36671;SDS011;22663;47.412;9.742;2022-12-11T01:32:40;30.20;;;16.70;;
36671;SDS011;22663;47.412;9.742;2022-12-11T01:35:07;31.50;;;17.15;;
36671;SDS011;22663;47.412;9.742;2022-12-11T01:37:33;29.97;;;16.90;;
36671;SDS011;22663;47.412;9.742;2022-12-11T01:40:00;29.03;;;16.50;;
36671;SDS011;22663;47.412;9.742;2022-12-11T01:42:26;26.08;;;14.93;;
36671;SDS011;22663;47.412;9.742;2022-12-11T01:47:38;29.33;;;16.73;;
36671;SDS011;22663;47.412;9.742;2022-12-11T01:50:04;29.08;;;16.63;;
36671;SDS011;22663;47.412;9.742;2022-12-11T01:52:30;31.65;;;16.75;;
36671;SDS011;22663;47.412;9.742;2022-12-11T01:54:56;27.83;;;15.13;;
36671;SDS011;22663;47.412;9.742;2022-12-11T01:57:22;26.42;;;15.00;;
36671;SDS011;22663;47.412;9.742;2022-12-11T01:59:48;27.50;;;14.20;;
36671;SDS011;22663;47.412;9.742;2022-12-11T02:02:48;28.83;;;15.20;;
36671;SDS011;22663;47.412;9.742;2022-12-11T02:05:07;25.10;;;15.07;;
36671;SDS011;22663;47.412;9.742;2022-12-11T02:07:38;25.40;;;13.27;;
36671;SDS011;22663;47.412;9.742;2022-12-11T02:10:06;26.73;;;14.35;;
36671;SDS011;22663;47.412;9.742;2022-12-11T02:15:14;25.27;;;13.75;;
36671;SDS011;22663;47.412;9.742;2022-12-11T02:20:16;23.20;;;12.90;;
36671;SDS011;22663;47.412;9.742;2022-12-11T02:23:05;22.73;;;12.82;;
36671;SDS011;22663;47.412;9.742;2022-12-11T02:28:19;24.27;;;13.55;;
36671;SDS011;22663;47.412;9.742;2022-12-11T02:30:52;27.23;;;15.25;;
36671;SDS011;22663;47.412;9.742;2022-12-11T02:33:20;22.50;;;13.77;;
36671;SDS011;22663;47.412;9.742;2022-12-11T02:35:48;26.88;;;14.80;;
36671;SDS011;22663;47.412;9.742;2022-12-11T02:38:16;26.58;;;14.52;;
36671;SDS011;22663;47.412;9.742;2022-12-11T02:40:42;29.30;;;14.80;;
36671;SDS011;22663;47.412;9.742;2022-12-11T02:43:10;26.33;;;15.47;;
36671;SDS011;22663;47.412;9.742;2022-12-11T02:45:38;27.20;;;14.83;;
36671;SDS011;22663;47.412;9.742;2022-12-11T02:48:05;27.33;;;14.85;;
36671;SDS011;22663;47.412;9.742;2022-12-11T02:50:31;24.58;;;14.52;;
36671;SDS011;22663;47.412;9.742;2022-12-11T02:52:58;22.35;;;13.70;;
36671;SDS011;22663;47.412;9.742;2022-12-11T02:55:25;25.52;;;14.27;;
36671;SDS011;22663;47.412;9.742;2022-12-11T02:57:59;24.80;;;14.27;;
36671;SDS011;22663;47.412;9.742;2022-12-11T03:00:27;21.63;;;12.18;;
36671;SDS011;22663;47.412;9.742;2022-12-11T03:02:53;23.15;;;12.55;;
36671;SDS011;22663;47.412;9.742;2022-12-11T03:05:19;20.65;;;11.85;;
36671;SDS011;22663;47.412;9.742;2022-12-11T03:07:45;26.98;;;13.38;;
36671;SDS011;22663;47.412;9.742;2022-12-11T03:10:12;20.27;;;12.82;;
36671;SDS011;22663;47.412;9.742;2022-12-11T03:12:39;23.48;;;12.35;;
36671;SDS011;22663;47.412;9.742;2022-12-11T03:15:11;23.70;;;13.90;;
36671;SDS011;22663;47.412;9.742;2022-12-11T03:22:59;21.67;;;12.25;;
36671;SDS011;22663;47.412;9.742;2022-12-11T03:25:32;24.08;;;13.70;;
36671;SDS011;22663;47.412;9.742;2022-12-11T03:28:33;23.55;;;13.18;;
36671;SDS011;22663;47.412;9.742;2022-12-11T03:30:51;23.27;;;13.07;;
36671;SDS011;22663;47.412;9.742;2022-12-11T03:33:25;24.02;;;13.63;;
36671;SDS011;22663;47.412;9.742;2022-12-11T03:35:56;25.80;;;13.98;;
36671;SDS011;22663;47.412;9.742;2022-12-11T03:38:24;24.97;;;14.53;;
36671;SDS011;22663;47.412;9.742;2022-12-11T03:40:53;28.23;;;15.93;;
36671;SDS011;22663;47.412;9.742;2022-12-11T03:43:20;27.53;;;15.17;;
36671;SDS011;22663;47.412;9.742;2022-12-11T03:45:47;27.13;;;15.10;;
36671;SDS011;22663;47.412;9.742;2022-12-11T03:48:15;27.08;;;15.27;;
36671;SDS011;22663;47.412;9.742;2022-12-11T03:50:41;30.90;;;15.53;;
36671;SDS011;22663;47.412;9.742;2022-12-11T03:53:08;33.50;;;16.35;;
36671;SDS011;22663;47.412;9.742;2022-12-11T03:55:35;26.92;;;15.30;;
36671;SDS011;22663;47.412;9.742;2022-12-11T03:58:02;29.83;;;15.23;;
36671;SDS011;22663;47.412;9.742;2022-12-11T04:00:29;30.50;;;16.83;;
36671;SDS011;22663;47.412;9.742;2022-12-11T04:02:55;28.92;;;16.83;;
36671;SDS011;22663;47.412;9.742;2022-12-11T04:05:41;30.70;;;16.53;;
36671;SDS011;22663;47.412;9.742;2022-12-11T04:08:07;30.70;;;16.33;;
36671;SDS011;22663;47.412;9.742;2022-12-11T04:10:34;35.22;;;19.10;;
36671;SDS011;22663;47.412;9.742;2022-12-11T04:13:00;31.55;;;17.25;;
36671;SDS011;22663;47.412;9.742;2022-12-11T04:15:26;31.42;;;17.42;;
36671;SDS011;22663;47.412;9.742;2022-12-11T04:17:52;31.83;;;17.13;;
36671;SDS011;22663;47.412;9.742;2022-12-11T04:20:47;27.65;;;16.70;;
36671;SDS011;22663;47.412;9.742;2022-12-11T04:23:32;31.73;;;17.30;;
36671;SDS011;22663;47.412;9.742;2022-12-11T04:26:18;33.97;;;18.53;;
36671;SDS011;22663;47.412;9.742;2022-12-11T04:28:45;37.70;;;19.07;;
36671;SDS011;22663;47.412;9.742;2022-12-11T04:31:12;32.90;;;17.90;;
36671;SDS011;22663;47.412;9.742;2022-12-11T04:33:38;33.33;;;16.97;;
36671;SDS011;22663;47.412;9.742;2022-12-11T04:36:04;33.25;;;18.00;;
36671;SDS011;22663;47.412;9.742;2022-12-11T04:38:31;33.03;;;18.70;;
36671;SDS011;22663;47.412;9.742;2022-12-11T04:40:58;35.47;;;19.50;;
36671;SDS011;22663;47.412;9.742;2022-12-11T04:43:24;36.80;;;20.35;;
36671;SDS011;22663;47.412;9.742;2022-12-11T04:45:58;35.57;;;16.83;;
36671;SDS011;22663;47.412;9.742;2022-12-11T04:48:24;29.20;;;16.87;;
36671;SDS011;22663;47.412;9.742;2022-12-11T04:50:50;29.95;;;16.83;;
36671;SDS011;22663;47.412;9.742;2022-12-11T04:53:17;29.02;;;16.00;;
36671;SDS011;22663;47.412;9.742;2022-12-11T04:55:43;29.33;;;16.30;;
36671;SDS011;22663;47.412;9.742;2022-12-11T04:58:09;31.50;;;17.00;;
36671;SDS011;22663;47.412;9.742;2022-12-11T05:00:35;31.63;;;16.70;;
36671;SDS011;22663;47.412;9.742;2022-12-11T05:03:01;28.77;;;15.93;;
36671;SDS011;22663;47.412;9.742;2022-12-11T05:05:27;30.27;;;16.97;;
36671;SDS011;22663;47.412;9.742;2022-12-11T05:07:53;31.02;;;17.05;;
36671;SDS011;22663;47.412;9.742;2022-12-11T05:10:19;28.20;;;15.70;;
36671;SDS011;22663;47.412;9.742;2022-12-11T05:12:45;27.85;;;15.15;;
36671;SDS011;22663;47.412;9.742;2022-12-11T05:15:11;24.57;;;13.53;;
36671;SDS011;22663;47.412;9.742;2022-12-11T05:17:38;28.57;;;15.37;;
36671;SDS011;22663;47.412;9.742;2022-12-11T05:20:04;25.67;;;15.10;;
36671;SDS011;22663;47.412;9.742;2022-12-11T05:22:30;28.92;;;15.90;;
36671;SDS011;22663;47.412;9.742;2022-12-11T05:24:56;24.83;;;13.60;;
36671;SDS011;22663;47.412;9.742;2022-12-11T05:27:22;23.65;;;13.88;;
36671;SDS011;22663;47.412;9.742;2022-12-11T05:29:48;28.10;;;13.87;;
36671;SDS011;22663;47.412;9.742;2022-12-11T05:32:14;23.98;;;13.60;;
36671;SDS011;22663;47.412;9.742;2022-12-11T05:34:41;22.47;;;12.83;;
36671;SDS011;22663;47.412;9.742;2022-12-11T05:37:07;20.37;;;12.37;;
36671;SDS011;22663;47.412;9.742;2022-12-11T05:39:33;25.33;;;14.53;;
36671;SDS011;22663;47.412;9.742;2022-12-11T05:41:59;24.63;;;14.37;;
36671;SDS011;22663;47.412;9.742;2022-12-11T05:44:25;23.37;;;13.47;;
36671;SDS011;22663;47.412;9.742;2022-12-11T05:46:51;27.83;;;14.40;;
36671;SDS011;22663;47.412;9.742;2022-12-11T05:49:17;20.73;;;12.63;;
36671;SDS011;22663;47.412;9.742;2022-12-11T05:51:43;19.23;;;11.20;;
36671;SDS011;22663;47.412;9.742;2022-12-11T05:54:09;20.33;;;11.50;;
36671;SDS011;22663;47.412;9.742;2022-12-11T05:56:36;17.90;;;10.63;;
36671;SDS011;22663;47.412;9.742;2022-12-11T05:59:03;18.60;;;11.13;;
36671;SDS011;22663;47.412;9.742;2022-12-11T06:01:31;18.80;;;9.85;;
36671;SDS011;22663;47.412;9.742;2022-12-11T06:03:58;18.87;;;11.40;;
36671;SDS011;22663;47.412;9.742;2022-12-11T06:06:24;18.27;;;10.43;;
36671;SDS011;22663;47.412;9.742;2022-12-11T06:08:51;18.03;;;11.00;;
36671;SDS011;22663;47.412;9.742;2022-12-11T06:11:17;19.20;;;11.13;;
36671;SDS011;22663;47.412;9.742;2022-12-11T06:13:43;22.63;;;12.03;;
36671;SDS011;22663;47.412;9.742;2022-12-11T06:16:09;19.40;;;10.77;;
36671;SDS011;22663;47.412;9.742;2022-12-11T06:18:36;19.77;;;10.87;;
36671;SDS011;22663;47.412;9.742;2022-12-11T06:21:10;21.63;;;12.63;;
36671;SDS011;22663;47.412;9.742;2022-12-11T06:23:36;21.77;;;12.33;;
36671;SDS011;22663;47.412;9.742;2022-12-11T06:26:02;20.13;;;12.10;;
36671;SDS011;22663;47.412;9.742;2022-12-11T06:28:28;21.03;;;11.30;;
36671;SDS011;22663;47.412;9.742;2022-12-11T06:30:57;22.70;;;12.40;;
36671;SDS011;22663;47.412;9.742;2022-12-11T06:33:23;18.17;;;11.00;;
36671;SDS011;22663;47.412;9.742;2022-12-11T06:35:49;18.43;;;11.53;;
36671;SDS011;22663;47.412;9.742;2022-12-11T06:38:16;22.77;;;12.70;;
36671;SDS011;22663;47.412;9.742;2022-12-11T06:40:42;19.73;;;12.13;;
36671;SDS011;22663;47.412;9.742;2022-12-11T06:43:08;22.63;;;12.63;;
36671;SDS011;22663;47.412;9.742;2022-12-11T06:45:35;19.97;;;12.63;;
36671;SDS011;22663;47.412;9.742;2022-12-11T06:48:02;19.87;;;11.87;;
36671;SDS011;22663;47.412;9.742;2022-12-11T06:50:28;22.30;;;13.37;;
36671;SDS011;22663;47.412;9.742;2022-12-11T06:52:57;24.70;;;14.13;;
36671;SDS011;22663;47.412;9.742;2022-12-11T06:55:23;23.03;;;13.23;;
36671;SDS011;22663;47.412;9.742;2022-12-11T06:57:49;22.83;;;12.57;;
36671;SDS011;22663;47.412;9.742;2022-12-11T07:00:15;26.13;;;14.53;;
36671;SDS011;22663;47.412;9.742;2022-12-11T07:02:41;24.23;;;14.17;;
36671;SDS011;22663;47.412;9.742;2022-12-11T07:05:07;24.20;;;14.00;;
36671;SDS011;22663;47.412;9.742;2022-12-11T07:07:33;23.67;;;13.23;;
36671;SDS011;22663;47.412;9.742;2022-12-11T07:09:59;23.67;;;14.90;;
36671;SDS011;22663;47.412;9.742;2022-12-11T07:12:25;22.87;;;12.60;;
36671;SDS011;22663;47.412;9.742;2022-12-11T07:14:51;21.63;;;12.17;;
36671;SDS011;22663;47.412;9.742;2022-12-11T07:17:17;23.23;;;11.60;;
36671;SDS011;22663;47.412;9.742;2022-12-11T07:19:43;25.40;;;14.17;;
36671;SDS011;22663;47.412;9.742;2022-12-11T07:22:09;19.97;;;12.70;;
36671;SDS011;22663;47.412;9.742;2022-12-11T07:24:36;21.97;;;12.67;;
36671;SDS011;22663;47.412;9.742;2022-12-11T07:27:02;23.97;;;13.60;;
36671;SDS011;22663;47.412;9.742;2022-12-11T07:29:29;21.77;;;12.97;;
36671;SDS011;22663;47.412;9.742;2022-12-11T07:31:55;21.83;;;12.80;;
36671;SDS011;22663;47.412;9.742;2022-12-11T07:34:21;25.87;;;14.70;;
36671;SDS011;22663;47.412;9.742;2022-12-11T07:36:47;23.77;;;14.07;;
36671;SDS011;22663;47.412;9.742;2022-12-11T07:39:13;21.23;;;13.33;;
36671;SDS011;22663;47.412;9.742;2022-12-11T07:41:40;27.23;;;15.03;;
36671;SDS011;22663;47.412;9.742;2022-12-11T07:44:06;22.03;;;13.83;;
36671;SDS011;22663;47.412;9.742;2022-12-11T07:46:32;23.73;;;13.93;;
36671;SDS011;22663;47.412;9.742;2022-12-11T07:48:58;27.17;;;14.97;;
36671;SDS011;22663;47.412;9.742;2022-12-11T07:51:29;25.80;;;15.43;;
36671;SDS011;22663;47.412;9.742;2022-12-11T07:53:58;26.07;;;15.30;;
36671;SDS011;22663;47.412;9.742;2022-12-11T07:56:25;24.80;;;15.07;;
36671;SDS011;22663;47.412;9.742;2022-12-11T07:58:52;25.33;;;14.30;;
36671;SDS011;22663;47.412;9.742;2022-12-11T08:01:22;22.07;;;13.53;;
36671;SDS011;22663;47.412;9.742;2022-12-11T08:03:50;22.92;;;13.48;;
36671;SDS011;22663;47.412;9.742;2022-12-11T08:06:16;22.03;;;12.77;;
36671;SDS011;22663;47.412;9.742;2022-12-11T08:08:42;24.77;;;12.77;;
36671;SDS011;22663;47.412;9.742;2022-12-11T08:11:10;23.40;;;13.10;;
36671;SDS011;22663;47.412;9.742;2022-12-11T08:13:36;22.77;;;12.67;;
36671;SDS011;22663;47.412;9.742;2022-12-11T08:16:06;21.03;;;12.83;;
36671;SDS011;22663;47.412;9.742;2022-12-11T08:18:33;20.90;;;12.57;;
36671;SDS011;22663;47.412;9.742;2022-12-11T08:21:06;22.50;;;13.97;;
36671;SDS011;22663;47.412;9.742;2022-12-11T08:25:58;25.80;;;12.63;;
36671;SDS011;22663;47.412;9.742;2022-12-11T08:28:26;23.80;;;13.65;;
36671;SDS011;22663;47.412;9.742;2022-12-11T08:30:52;27.45;;;15.65;;
36671;SDS011;22663;47.412;9.742;2022-12-11T08:33:18;24.23;;;14.07;;
36671;SDS011;22663;47.412;9.742;2022-12-11T08:35:44;24.10;;;13.50;;
36671;SDS011;22663;47.412;9.742;2022-12-11T08:38:11;22.60;;;13.55;;
36671;SDS011;22663;47.412;9.742;2022-12-11T08:40:37;22.92;;;14.32;;
36671;SDS011;22663;47.412;9.742;2022-12-11T08:43:03;23.50;;;13.30;;
36671;SDS011;22663;47.412;9.742;2022-12-11T08:45:29;25.70;;;13.38;;
36671;SDS011;22663;47.412;9.742;2022-12-11T08:47:56;22.90;;;13.52;;
36671;SDS011;22663;47.412;9.742;2022-12-11T08:50:23;23.42;;;12.95;;
36671;SDS011;22663;47.412;9.742;2022-12-11T08:52:49;19.02;;;12.20;;
36671;SDS011;22663;47.412;9.742;2022-12-11T08:55:15;23.10;;;12.27;;
36671;SDS011;22663;47.412;9.742;2022-12-11T08:57:41;19.73;;;11.35;;
36671;SDS011;22663;47.412;9.742;2022-12-11T09:00:08;20.38;;;11.88;;
36671;SDS011;22663;47.412;9.742;2022-12-11T09:02:36;22.73;;;12.63;;
36671;SDS011;22663;47.412;9.742;2022-12-11T09:05:02;17.77;;;11.40;;
36671;SDS011;22663;47.412;9.742;2022-12-11T09:07:31;20.00;;;11.82;;
36671;SDS011;22663;47.412;9.742;2022-12-11T09:09:58;19.77;;;11.75;;
36671;SDS011;22663;47.412;9.742;2022-12-11T09:12:25;20.13;;;11.90;;
36671;SDS011;22663;47.412;9.742;2022-12-11T09:14:51;23.95;;;13.35;;
36671;SDS011;22663;47.412;9.742;2022-12-11T09:17:17;32.58;;;15.23;;
36671;SDS011;22663;47.412;9.742;2022-12-11T09:19:43;26.50;;;14.65;;
36671;SDS011;22663;47.412;9.742;2022-12-11T09:22:09;25.30;;;13.73;;
36671;SDS011;22663;47.412;9.742;2022-12-11T09:24:36;25.02;;;14.40;;
36671;SDS011;22663;47.412;9.742;2022-12-11T09:27:03;23.30;;;12.52;;
36671;SDS011;22663;47.412;9.742;2022-12-11T09:29:29;24.05;;;11.70;;
36671;SDS011;22663;47.412;9.742;2022-12-11T09:31:55;20.27;;;12.23;;
36671;SDS011;22663;47.412;9.742;2022-12-11T09:34:22;21.05;;;13.05;;
36671;SDS011;22663;47.412;9.742;2022-12-11T09:36:48;17.52;;;10.75;;
36671;SDS011;22663;47.412;9.742;2022-12-11T09:39:15;17.90;;;10.15;;
36671;SDS011;22663;47.412;9.742;2022-12-11T09:44:33;16.77;;;10.15;;
36671;SDS011;22663;47.412;9.742;2022-12-11T09:47:00;20.00;;;9.93;;
36671;SDS011;22663;47.412;9.742;2022-12-11T09:49:39;19.77;;;11.43;;
36671;SDS011;22663;47.412;9.742;2022-12-11T09:52:11;17.23;;;11.13;;
36671;SDS011;22663;47.412;9.742;2022-12-11T09:54:41;19.75;;;12.23;;
36671;SDS011;22663;47.412;9.742;2022-12-11T10:02:24;17.92;;;11.77;;
36671;SDS011;22663;47.412;9.742;2022-12-11T10:07:29;20.27;;;12.50;;
36671;SDS011;22663;47.412;9.742;2022-12-11T10:18:00;20.40;;;11.75;;
36671;SDS011;22663;47.412;9.742;2022-12-11T10:20:32;21.67;;;12.70;;
36671;SDS011;22663;47.412;9.742;2022-12-11T10:23:04;21.98;;;13.20;;
36671;SDS011;22663;47.412;9.742;2022-12-11T10:25:32;22.88;;;12.63;;
36671;SDS011;22663;47.412;9.742;2022-12-11T10:27:59;28.65;;;14.68;;
36671;SDS011;22663;47.412;9.742;2022-12-11T10:30:27;21.38;;;13.15;;
36671;SDS011;22663;47.412;9.742;2022-12-11T10:35:32;19.05;;;11.63;;
36671;SDS011;22663;47.412;9.742;2022-12-11T10:41:00;17.38;;;11.25;;
36671;SDS011;22663;47.412;9.742;2022-12-11T10:43:35;16.75;;;10.80;;
36671;SDS011;22663;47.412;9.742;2022-12-11T10:46:02;19.50;;;12.05;;
36671;SDS011;22663;47.412;9.742;2022-12-11T10:48:28;18.70;;;12.05;;
36671;SDS011;22663;47.412;9.742;2022-12-11T10:50:57;18.80;;;11.30;;
36671;SDS011;22663;47.412;9.742;2022-12-11T10:53:23;19.52;;;13.23;;
36671;SDS011;22663;47.412;9.742;2022-12-11T10:55:50;20.52;;;12.93;;
36671;SDS011;22663;47.412;9.742;2022-12-11T10:58:18;18.73;;;10.88;;
36671;SDS011;22663;47.412;9.742;2022-12-11T11:00:44;19.38;;;11.35;;
36671;SDS011;22663;47.412;9.742;2022-12-11T11:03:25;17.42;;;10.85;;
36671;SDS011;22663;47.412;9.742;2022-12-11T11:06:01;17.77;;;10.70;;
36671;SDS011;22663;47.412;9.742;2022-12-11T11:08:28;18.70;;;10.65;;
36671;SDS011;22663;47.412;9.742;2022-12-11T11:11:02;17.48;;;10.98;;
36671;SDS011;22663;47.412;9.742;2022-12-11T11:13:28;16.85;;;9.93;;
36671;SDS011;22663;47.412;9.742;2022-12-11T11:16:01;16.90;;;10.90;;
36671;SDS011;22663;47.412;9.742;2022-12-11T11:18:28;17.63;;;11.07;;
36671;SDS011;22663;47.412;9.742;2022-12-11T11:20:55;17.05;;;11.40;;
36671;SDS011;22663;47.412;9.742;2022-12-11T11:23:21;15.68;;;10.50;;
36671;SDS011;22663;47.412;9.742;2022-12-11T11:25:55;15.90;;;10.18;;
36671;SDS011;22663;47.412;9.742;2022-12-11T11:28:28;19.02;;;11.65;;
36671;SDS011;22663;47.412;9.742;2022-12-11T11:31:00;17.30;;;10.68;;
36671;SDS011;22663;47.412;9.742;2022-12-11T11:33:27;16.83;;;10.07;;
36671;SDS011;22663;47.412;9.742;2022-12-11T11:35:54;18.50;;;11.65;;
36671;SDS011;22663;47.412;9.742;2022-12-11T11:38:21;15.23;;;9.55;;
36671;SDS011;22663;47.412;9.742;2022-12-11T11:46:13;16.58;;;10.20;;
36671;SDS011;22663;47.412;9.742;2022-12-11T11:51:11;16.38;;;10.02;;
36671;SDS011;22663;47.412;9.742;2022-12-11T11:53:39;15.95;;;9.40;;
36671;SDS011;22663;47.412;9.742;2022-12-11T11:56:13;15.38;;;10.27;;
36671;SDS011;22663;47.412;9.742;2022-12-11T11:58:46;15.15;;;9.32;;
36671;SDS011;22663;47.412;9.742;2022-12-11T12:03:41;17.02;;;9.27;;
36671;SDS011;22663;47.412;9.742;2022-12-11T12:08:50;14.35;;;8.38;;
36671;SDS011;22663;47.412;9.742;2022-12-11T12:26:37;12.23;;;7.35;;
36671;SDS011;22663;47.412;9.742;2022-12-11T12:34:36;11.55;;;7.20;;
36671;SDS011;22663;47.412;9.742;2022-12-11T12:42:27;12.57;;;7.60;;
36671;SDS011;22663;47.412;9.742;2022-12-11T12:47:23;14.80;;;8.65;;
36671;SDS011;22663;47.412;9.742;2022-12-11T12:49:51;13.52;;;8.40;;
36671;SDS011;22663;47.412;9.742;2022-12-11T12:52:33;13.27;;;7.50;;
36671;SDS011;22663;47.412;9.742;2022-12-11T12:55:19;9.73;;;6.05;;
36671;SDS011;22663;47.412;9.742;2022-12-11T12:57:55;10.05;;;6.00;;
36671;SDS011;22663;47.412;9.742;2022-12-11T13:00:25;11.60;;;6.47;;
36671;SDS011;22663;47.412;9.742;2022-12-11T13:02:51;11.65;;;6.82;;
36671;SDS011;22663;47.412;9.742;2022-12-11T13:05:21;11.02;;;6.53;;
36671;SDS011;22663;47.412;9.742;2022-12-11T13:07:52;12.13;;;7.32;;
36671;SDS011;22663;47.412;9.742;2022-12-11T13:10:23;12.25;;;7.45;;
36671;SDS011;22663;47.412;9.742;2022-12-11T13:12:50;12.38;;;7.63;;
36671;SDS011;22663;47.412;9.742;2022-12-11T13:15:36;12.07;;;7.47;;
36671;SDS011;22663;47.412;9.742;2022-12-11T13:20:52;11.80;;;7.13;;
36671;SDS011;22663;47.412;9.742;2022-12-11T13:23:19;8.68;;;4.80;;
36671;SDS011;22663;47.412;9.742;2022-12-11T13:25:52;8.73;;;5.50;;
36671;SDS011;22663;47.412;9.742;2022-12-11T13:28:20;11.40;;;7.18;;
36671;SDS011;22663;47.412;9.742;2022-12-11T13:30:56;14.65;;;6.95;;
36671;SDS011;22663;47.412;9.742;2022-12-11T13:33:22;12.02;;;6.70;;
36671;SDS011;22663;47.412;9.742;2022-12-11T13:35:48;9.80;;;6.23;;
36671;SDS011;22663;47.412;9.742;2022-12-11T13:38:26;10.82;;;7.22;;
36671;SDS011;22663;47.412;9.742;2022-12-11T13:40:54;9.13;;;5.80;;
36671;SDS011;22663;47.412;9.742;2022-12-11T13:43:25;9.90;;;6.70;;
36671;SDS011;22663;47.412;9.742;2022-12-11T13:45:55;10.37;;;6.10;;
36671;SDS011;22663;47.412;9.742;2022-12-11T13:53:20;10.20;;;6.00;;
36671;SDS011;22663;47.412;9.742;2022-12-11T13:56:03;9.40;;;5.63;;
36671;SDS011;22663;47.412;9.742;2022-12-11T13:58:32;7.88;;;5.88;;
36671;SDS011;22663;47.412;9.742;2022-12-11T14:03:31;10.52;;;5.82;;
36671;SDS011;22663;47.412;9.742;2022-12-11T14:05:58;9.60;;;5.47;;
36671;SDS011;22663;47.412;9.742;2022-12-11T14:08:26;11.63;;;6.67;;
36671;SDS011;22663;47.412;9.742;2022-12-11T14:10:54;9.70;;;5.77;;
36671;SDS011;22663;47.412;9.742;2022-12-11T14:13:24;8.50;;;5.37;;
36671;SDS011;22663;47.412;9.742;2022-12-11T14:15:51;8.93;;;5.43;;
36671;SDS011;22663;47.412;9.742;2022-12-11T14:18:22;8.50;;;5.67;;
36671;SDS011;22663;47.412;9.742;2022-12-11T14:20:56;9.70;;;6.13;;
36671;SDS011;22663;47.412;9.742;2022-12-11T14:23:24;9.20;;;5.40;;
36671;SDS011;22663;47.412;9.742;2022-12-11T14:25:54;9.50;;;5.87;;
36671;SDS011;22663;47.412;9.742;2022-12-11T14:28:21;11.03;;;6.00;;
36671;SDS011;22663;47.412;9.742;2022-12-11T14:30:49;9.77;;;5.77;;
36671;SDS011;22663;47.412;9.742;2022-12-11T14:33:15;9.57;;;6.27;;
36671;SDS011;22663;47.412;9.742;2022-12-11T14:35:42;10.57;;;5.03;;
36671;SDS011;22663;47.412;9.742;2022-12-11T14:38:19;10.97;;;5.93;;
36671;SDS011;22663;47.412;9.742;2022-12-11T14:40:47;9.50;;;5.30;;
36671;SDS011;22663;47.412;9.742;2022-12-11T14:46:00;7.83;;;4.67;;
36671;SDS011;22663;47.412;9.742;2022-12-11T14:48:29;9.73;;;5.57;;
36671;SDS011;22663;47.412;9.742;2022-12-11T14:50:58;13.53;;;6.90;;
36671;SDS011;22663;47.412;9.742;2022-12-11T14:53:34;11.00;;;6.47;;
36671;SDS011;22663;47.412;9.742;2022-12-11T14:56:02;14.43;;;6.63;;
36671;SDS011;22663;47.412;9.742;2022-12-11T14:58:29;13.37;;;6.53;;
36671;SDS011;22663;47.412;9.742;2022-12-11T15:00:57;17.67;;;7.50;;
36671;SDS011;22663;47.412;9.742;2022-12-11T15:03:24;14.13;;;7.47;;
36671;SDS011;22663;47.412;9.742;2022-12-11T15:05:55;11.93;;;6.37;;
36671;SDS011;22663;47.412;9.742;2022-12-11T15:08:25;13.90;;;5.73;;
36671;SDS011;22663;47.412;9.742;2022-12-11T15:13:24;10.40;;;5.00;;
36671;SDS011;22663;47.412;9.742;2022-12-11T15:15:50;7.30;;;4.37;;
36671;SDS011;22663;47.412;9.742;2022-12-11T15:18:30;9.17;;;4.47;;
36671;SDS011;22663;47.412;9.742;2022-12-11T15:20:58;7.67;;;3.30;;
36671;SDS011;22663;47.412;9.742;2022-12-11T15:23:26;10.27;;;4.60;;
36671;SDS011;22663;47.412;9.742;2022-12-11T15:25:53;7.20;;;4.17;;
36671;SDS011;22663;47.412;9.742;2022-12-11T15:28:29;7.93;;;3.73;;
36671;SDS011;22663;47.412;9.742;2022-12-11T15:30:58;7.40;;;3.97;;
36671;SDS011;22663;47.412;9.742;2022-12-11T15:33:26;8.47;;;4.37;;
36671;SDS011;22663;47.412;9.742;2022-12-11T15:38:26;5.03;;;2.93;;
36671;SDS011;22663;47.412;9.742;2022-12-11T15:40:52;5.43;;;3.20;;
36671;SDS011;22663;47.412;9.742;2022-12-11T15:43:19;7.10;;;3.20;;
36671;SDS011;22663;47.412;9.742;2022-12-11T15:45:45;5.07;;;3.03;;
36671;SDS011;22663;47.412;9.742;2022-12-11T15:48:11;4.10;;;2.60;;
36671;SDS011;22663;47.412;9.742;2022-12-11T15:50:37;5.27;;;3.03;;
36671;SDS011;22663;47.412;9.742;2022-12-11T15:53:04;5.93;;;3.07;;
36671;SDS011;22663;47.412;9.742;2022-12-11T15:55:30;6.13;;;3.53;;
36671;SDS011;22663;47.412;9.742;2022-12-11T15:58:06;4.63;;;2.97;;
36671;SDS011;22663;47.412;9.742;2022-12-11T16:00:33;5.53;;;3.87;;
36671;SDS011;22663;47.412;9.742;2022-12-11T16:03:00;7.90;;;3.33;;
36671;SDS011;22663;47.412;9.742;2022-12-11T16:05:26;4.57;;;2.70;;
36671;SDS011;22663;47.412;9.742;2022-12-11T16:07:52;7.93;;;4.53;;
36671;SDS011;22663;47.412;9.742;2022-12-11T16:10:20;11.07;;;5.93;;
36671;SDS011;22663;47.412;9.742;2022-12-11T16:12:46;9.27;;;5.57;;
36671;SDS011;22663;47.412;9.742;2022-12-11T16:15:13;9.60;;;5.53;;